sensor_id;sensor_type;location;lat;lon;timestamp;pressure;altitude;pressure_sealevel;temperature;humidity
40940;BME280;26666;50.156;7.700;2022-09-09T00:02:27;99890.28;;;15.24;100.00
40940;BME280;26666;50.156;7.700;2022-09-09T00:07:49;99888.94;;;15.28;100.00
40940;BME280;26666;50.156;7.700;2022-09-09T00:23:29;99875.94;;;14.93;100.00
40940;BME280;26666;50.156;7.700;2022-09-09T00:28:35;99878.91;;;14.98;100.00
40940;BME280;26666;50.156;7.700;2022-09-09T00:33:40;99871.91;;;14.97;100.00
40940;BME280;26666;50.156;7.700;2022-09-09T00:38:49;99878.25;;;14.96;100.00
40940;BME280;26666;50.156;7.700;2022-09-09T00:44:21;99870.28;;;14.96;100.00
40940;BME280;26666;50.156;7.700;2022-09-09T01:05:04;99861.34;;;14.81;100.00
40940;BME280;26666;50.156;7.700;2022-09-09T01:10:11;99852.69;;;14.87;100.00
40940;BME280;26666;50.156;7.700;2022-09-09T01:15:22;99862.38;;;14.72;100.00
40940;BME280;26666;50.156;7.700;2022-09-09T01:20:35;99862.38;;;14.72;100.00
40940;BME280;26666;50.156;7.700;2022-09-09T01:31:29;99868.47;;;14.81;100.00
40940;BME280;26666;50.156;7.700;2022-09-09T01:36:40;99875.31;;;14.67;100.00
40940;BME280;26666;50.156;7.700;2022-09-09T01:41:44;99876.00;;;14.52;100.00
40940;BME280;26666;50.156;7.700;2022-09-09T01:46:46;99887.44;;;14.53;100.00
40940;BME280;26666;50.156;7.700;2022-09-09T01:51:55;99890.09;;;14.53;100.00
40940;BME280;26666;50.156;7.700;2022-09-09T01:57:25;99888.63;;;14.50;100.00
40940;BME280;26666;50.156;7.700;2022-09-09T02:02:48;99889.81;;;14.48;100.00
40940;BME280;26666;50.156;7.700;2022-09-09T02:08:03;99878.50;;;14.37;100.00
40940;BME280;26666;50.156;7.700;2022-09-09T02:13:13;99872.00;;;14.73;100.00
40940;BME280;26666;50.156;7.700;2022-09-09T02:18:21;99866.56;;;14.58;100.00
40940;BME280;26666;50.156;7.700;2022-09-09T02:23:25;99863.13;;;14.97;100.00
40940;BME280;26666;50.156;7.700;2022-09-09T02:28:30;99857.56;;;14.59;100.00
40940;BME280;26666;50.156;7.700;2022-09-09T02:33:37;99857.22;;;14.62;100.00
40940;BME280;26666;50.156;7.700;2022-09-09T02:38:44;99852.97;;;15.01;100.00
40940;BME280;26666;50.156;7.700;2022-09-09T02:43:47;99847.38;;;14.71;100.00
40940;BME280;26666;50.156;7.700;2022-09-09T02:49:09;99855.53;;;14.77;100.00
40940;BME280;26666;50.156;7.700;2022-09-09T02:54:27;99842.03;;;14.87;100.00
40940;BME280;26666;50.156;7.700;2022-09-09T02:59:29;99846.75;;;14.52;100.00
40940;BME280;26666;50.156;7.700;2022-09-09T03:04:31;99852.25;;;14.59;100.00
40940;BME280;26666;50.156;7.700;2022-09-09T03:09:32;99858.22;;;14.53;100.00
40940;BME280;26666;50.156;7.700;2022-09-09T03:14:34;99864.19;;;14.55;100.00
40940;BME280;26666;50.156;7.700;2022-09-09T03:19:35;99884.47;;;14.56;100.00
40940;BME280;26666;50.156;7.700;2022-09-09T03:24:37;99884.16;;;14.67;100.00
40940;BME280;26666;50.156;7.700;2022-09-09T03:29:38;99884.94;;;14.76;100.00
40940;BME280;26666;50.156;7.700;2022-09-09T03:34:40;99880.66;;;14.75;100.00
40940;BME280;26666;50.156;7.700;2022-09-09T03:39:41;99874.50;;;14.66;100.00
40940;BME280;26666;50.156;7.700;2022-09-09T03:44:43;99890.44;;;14.83;100.00
40940;BME280;26666;50.156;7.700;2022-09-09T03:49:45;99879.78;;;14.74;100.00
40940;BME280;26666;50.156;7.700;2022-09-09T03:54:47;99875.31;;;14.83;100.00
40940;BME280;26666;50.156;7.700;2022-09-09T03:59:48;99864.84;;;14.73;100.00
40940;BME280;26666;50.156;7.700;2022-09-09T04:04:49;99877.47;;;14.79;100.00
40940;BME280;26666;50.156;7.700;2022-09-09T04:09:51;99882.28;;;14.51;100.00
40940;BME280;26666;50.156;7.700;2022-09-09T04:14:52;99870.31;;;14.80;100.00
40940;BME280;26666;50.156;7.700;2022-09-09T04:19:54;99885.16;;;14.50;100.00
40940;BME280;26666;50.156;7.700;2022-09-09T04:24:55;99872.19;;;14.47;100.00
40940;BME280;26666;50.156;7.700;2022-09-09T04:29:57;99855.91;;;14.50;100.00
40940;BME280;26666;50.156;7.700;2022-09-09T04:34:58;99860.88;;;14.69;100.00
40940;BME280;26666;50.156;7.700;2022-09-09T04:40:00;99872.38;;;14.62;100.00
40940;BME280;26666;50.156;7.700;2022-09-09T04:45:03;99885.97;;;14.42;100.00
40940;BME280;26666;50.156;7.700;2022-09-09T04:50:05;99893.63;;;14.37;100.00
40940;BME280;26666;50.156;7.700;2022-09-09T04:55:07;99891.78;;;14.54;100.00
40940;BME280;26666;50.156;7.700;2022-09-09T05:00:09;99903.09;;;14.48;100.00
40940;BME280;26666;50.156;7.700;2022-09-09T05:05:11;99895.78;;;14.58;100.00
40940;BME280;26666;50.156;7.700;2022-09-09T05:10:13;99900.72;;;14.86;100.00
40940;BME280;26666;50.156;7.700;2022-09-09T05:15:14;99901.25;;;14.65;100.00
40940;BME280;26666;50.156;7.700;2022-09-09T05:20:15;99906.41;;;14.66;100.00
40940;BME280;26666;50.156;7.700;2022-09-09T05:25:17;99904.75;;;14.65;100.00
40940;BME280;26666;50.156;7.700;2022-09-09T05:30:19;99905.16;;;15.02;100.00
40940;BME280;26666;50.156;7.700;2022-09-09T05:35:21;99903.72;;;15.30;100.00
40940;BME280;26666;50.156;7.700;2022-09-09T05:40:22;99898.53;;;16.61;100.00
40940;BME280;26666;50.156;7.700;2022-09-09T05:45:24;99913.16;;;19.60;99.27
40940;BME280;26666;50.156;7.700;2022-09-09T05:50:25;99906.13;;;20.47;89.41
40940;BME280;26666;50.156;7.700;2022-09-09T05:55:31;99912.47;;;22.03;82.29
40940;BME280;26666;50.156;7.700;2022-09-09T06:00:33;99914.00;;;23.97;73.21
40940;BME280;26666;50.156;7.700;2022-09-09T06:05:34;99917.34;;;22.70;75.30
40940;BME280;26666;50.156;7.700;2022-09-09T06:10:36;99915.25;;;18.31;97.40
40940;BME280;26666;50.156;7.700;2022-09-09T06:15:37;99915.78;;;17.84;100.00
40940;BME280;26666;50.156;7.700;2022-09-09T06:20:39;99906.84;;;17.55;100.00
40940;BME280;26666;50.156;7.700;2022-09-09T06:25:40;99910.94;;;23.08;81.62
40940;BME280;26666;50.156;7.700;2022-09-09T06:30:42;99911.28;;;25.33;68.54
40940;BME280;26666;50.156;7.700;2022-09-09T06:35:51;99910.69;;;23.16;73.37
40940;BME280;26666;50.156;7.700;2022-09-09T06:40:57;99908.25;;;23.08;73.98
40940;BME280;26666;50.156;7.700;2022-09-09T06:46:19;99906.38;;;23.27;74.37
40940;BME280;26666;50.156;7.700;2022-09-09T06:51:23;99906.47;;;23.20;72.70
40940;BME280;26666;50.156;7.700;2022-09-09T06:56:33;99913.88;;;21.74;75.75
40940;BME280;26666;50.156;7.700;2022-09-09T07:01:39;99908.81;;;25.20;69.12
40940;BME280;26666;50.156;7.700;2022-09-09T07:06:43;99917.41;;;26.32;62.84
40940;BME280;26666;50.156;7.700;2022-09-09T07:11:47;99918.88;;;29.86;52.45
40940;BME280;26666;50.156;7.700;2022-09-09T07:16:49;99917.81;;;24.62;63.81
40940;BME280;26666;50.156;7.700;2022-09-09T07:21:50;99919.94;;;25.76;59.04
40940;BME280;26666;50.156;7.700;2022-09-09T07:26:52;99922.13;;;24.51;63.66
40940;BME280;26666;50.156;7.700;2022-09-09T07:31:53;99925.91;;;22.35;71.58
40940;BME280;26666;50.156;7.700;2022-09-09T07:36:55;99926.94;;;22.59;68.79
40940;BME280;26666;50.156;7.700;2022-09-09T07:41:57;99922.75;;;21.74;69.38
40940;BME280;26666;50.156;7.700;2022-09-09T07:46:58;99930.03;;;21.02;73.33
40940;BME280;26666;50.156;7.700;2022-09-09T07:52:00;99940.38;;;20.32;76.97
40940;BME280;26666;50.156;7.700;2022-09-09T07:57:01;99937.88;;;20.30;79.00
40940;BME280;26666;50.156;7.700;2022-09-09T08:02:03;99948.38;;;22.47;70.81
40940;BME280;26666;50.156;7.700;2022-09-09T08:07:05;99953.63;;;21.65;73.21
40940;BME280;26666;50.156;7.700;2022-09-09T08:12:09;99953.41;;;20.61;73.96
40940;BME280;26666;50.156;7.700;2022-09-09T08:17:11;99941.63;;;21.68;72.73
40940;BME280;26666;50.156;7.700;2022-09-09T08:22:12;99940.56;;;22.39;70.20
40940;BME280;26666;50.156;7.700;2022-09-09T08:27:15;99954.81;;;22.14;69.79
40940;BME280;26666;50.156;7.700;2022-09-09T08:32:16;99963.19;;;21.34;68.54
40940;BME280;26666;50.156;7.700;2022-09-09T08:37:18;99968.06;;;22.48;68.35
40940;BME280;26666;50.156;7.700;2022-09-09T08:42:44;99958.66;;;21.35;65.86
40940;BME280;26666;50.156;7.700;2022-09-09T08:58:14;99968.16;;;21.51;71.43
40940;BME280;26666;50.156;7.700;2022-09-09T09:03:26;99959.34;;;21.75;66.94
40940;BME280;26666;50.156;7.700;2022-09-09T09:08:56;99960.84;;;20.73;68.31
40940;BME280;26666;50.156;7.700;2022-09-09T09:19:16;99975.66;;;21.08;66.84
40940;BME280;26666;50.156;7.700;2022-09-09T09:24:20;99963.44;;;21.84;63.42
40940;BME280;26666;50.156;7.700;2022-09-09T09:29:24;99960.94;;;22.21;63.80
40940;BME280;26666;50.156;7.700;2022-09-09T09:34:27;99979.06;;;21.56;64.03
40940;BME280;26666;50.156;7.700;2022-09-09T09:39:31;99981.59;;;21.44;63.59
40940;BME280;26666;50.156;7.700;2022-09-09T09:44:53;99969.00;;;21.90;64.24
40940;BME280;26666;50.156;7.700;2022-09-09T09:49:57;99981.06;;;22.19;60.45
40940;BME280;26666;50.156;7.700;2022-09-09T09:55:03;99970.28;;;22.25;58.83
40940;BME280;26666;50.156;7.700;2022-09-09T10:00:16;99960.72;;;22.30;59.71
40940;BME280;26666;50.156;7.700;2022-09-09T10:05:22;99958.00;;;22.87;60.98
40940;BME280;26666;50.156;7.700;2022-09-09T10:54:30;99940.47;;;23.02;59.88
40940;BME280;26666;50.156;7.700;2022-09-09T10:59:33;99920.69;;;22.65;59.30
40940;BME280;26666;50.156;7.700;2022-09-09T11:04:40;99927.16;;;22.82;57.40
40940;BME280;26666;50.156;7.700;2022-09-09T11:09:52;99927.00;;;23.02;58.83
40940;BME280;26666;50.156;7.700;2022-09-09T11:15:06;99930.81;;;22.88;59.27
40940;BME280;26666;50.156;7.700;2022-09-09T11:20:11;99932.31;;;22.84;57.94
40940;BME280;26666;50.156;7.700;2022-09-09T11:41:22;99931.91;;;22.05;60.90
40940;BME280;26666;50.156;7.700;2022-09-09T11:46:33;99922.53;;;21.24;66.84
40940;BME280;26666;50.156;7.700;2022-09-09T11:51:37;99953.41;;;20.68;78.90
40940;BME280;26666;50.156;7.700;2022-09-09T12:01:42;99950.00;;;19.93;100.00
40940;BME280;26666;50.156;7.700;2022-09-09T12:11:50;99944.91;;;20.58;100.00
40940;BME280;26666;50.156;7.700;2022-09-09T12:16:51;99928.19;;;20.42;100.00
40940;BME280;26666;50.156;7.700;2022-09-09T12:22:45;99918.09;;;20.51;100.00
40940;BME280;26666;50.156;7.700;2022-09-09T12:33:08;99905.47;;;20.58;95.56
40940;BME280;26666;50.156;7.700;2022-09-09T12:38:16;99905.28;;;20.53;92.24
40940;BME280;26666;50.156;7.700;2022-09-09T12:43:21;99902.19;;;20.70;87.06
40940;BME280;26666;50.156;7.700;2022-09-09T12:48:29;99900.13;;;20.65;97.14
40940;BME280;26666;50.156;7.700;2022-09-09T12:53:36;99890.19;;;20.92;87.05
40940;BME280;26666;50.156;7.700;2022-09-09T12:58:38;99898.53;;;21.29;84.53
40940;BME280;26666;50.156;7.700;2022-09-09T13:03:43;99894.22;;;21.21;87.18
40940;BME280;26666;50.156;7.700;2022-09-09T13:08:44;99887.75;;;21.42;90.93
40940;BME280;26666;50.156;7.700;2022-09-09T13:13:52;99887.97;;;21.34;86.13
40940;BME280;26666;50.156;7.700;2022-09-09T13:18:55;99892.16;;;21.23;85.24
40940;BME280;26666;50.156;7.700;2022-09-09T13:23:56;99911.06;;;20.63;85.36
40940;BME280;26666;50.156;7.700;2022-09-09T13:29:16;99947.16;;;20.14;82.91
40940;BME280;26666;50.156;7.700;2022-09-09T13:34:29;99975.97;;;19.09;96.42
40940;BME280;26666;50.156;7.700;2022-09-09T13:39:33;99969.34;;;18.55;100.00
40940;BME280;26666;50.156;7.700;2022-09-09T13:44:38;99960.03;;;18.72;100.00
40940;BME280;26666;50.156;7.700;2022-09-09T13:49:41;99939.53;;;18.58;100.00
40940;BME280;26666;50.156;7.700;2022-09-09T13:54:50;99927.25;;;19.75;99.36
40940;BME280;26666;50.156;7.700;2022-09-09T13:59:53;99914.94;;;20.07;100.00
40940;BME280;26666;50.156;7.700;2022-09-09T14:05:06;99894.94;;;20.17;98.16
40940;BME280;26666;50.156;7.700;2022-09-09T14:10:08;99887.31;;;19.39;100.00
40940;BME280;26666;50.156;7.700;2022-09-09T14:15:11;99880.03;;;19.74;100.00
40940;BME280;26666;50.156;7.700;2022-09-09T14:20:13;99882.81;;;19.46;100.00
40940;BME280;26666;50.156;7.700;2022-09-09T14:25:14;99884.78;;;19.79;100.00
40940;BME280;26666;50.156;7.700;2022-09-09T14:30:16;99883.09;;;19.71;100.00
40940;BME280;26666;50.156;7.700;2022-09-09T14:35:18;99884.88;;;19.50;100.00
40940;BME280;26666;50.156;7.700;2022-09-09T14:40:19;99887.81;;;19.14;100.00
40940;BME280;26666;50.156;7.700;2022-09-09T14:45:21;99888.50;;;19.29;100.00
40940;BME280;26666;50.156;7.700;2022-09-09T14:50:22;99899.59;;;19.20;100.00
40940;BME280;26666;50.156;7.700;2022-09-09T14:55:24;99915.03;;;19.18;100.00
40940;BME280;26666;50.156;7.700;2022-09-09T15:00:26;99926.38;;;18.85;100.00
40940;BME280;26666;50.156;7.700;2022-09-09T15:05:27;99947.28;;;18.75;100.00
40940;BME280;26666;50.156;7.700;2022-09-09T15:10:29;99971.34;;;18.75;100.00
40940;BME280;26666;50.156;7.700;2022-09-09T15:15:30;99991.25;;;18.44;100.00
40940;BME280;26666;50.156;7.700;2022-09-09T15:20:32;99989.97;;;18.18;100.00
40940;BME280;26666;50.156;7.700;2022-09-09T15:25:55;99953.25;;;17.54;100.00
40940;BME280;26666;50.156;7.700;2022-09-09T15:30:57;99970.50;;;17.88;100.00
40940;BME280;26666;50.156;7.700;2022-09-09T15:35:59;99983.25;;;17.71;100.00
40940;BME280;26666;50.156;7.700;2022-09-09T15:41:00;99990.69;;;17.76;100.00
40940;BME280;26666;50.156;7.700;2022-09-09T15:46:25;99997.06;;;17.89;100.00
40940;BME280;26666;50.156;7.700;2022-09-09T15:51:27;99988.88;;;17.61;100.00
40940;BME280;26666;50.156;7.700;2022-09-09T15:56:45;99975.16;;;17.64;100.00
40940;BME280;26666;50.156;7.700;2022-09-09T16:01:46;99962.25;;;17.68;100.00
40940;BME280;26666;50.156;7.700;2022-09-09T16:06:59;99971.94;;;17.69;100.00
40940;BME280;26666;50.156;7.700;2022-09-09T16:12:02;99979.38;;;17.59;100.00
40940;BME280;26666;50.156;7.700;2022-09-09T16:17:05;99995.63;;;17.57;100.00
40940;BME280;26666;50.156;7.700;2022-09-09T16:22:06;99989.88;;;17.60;100.00
40940;BME280;26666;50.156;7.700;2022-09-09T16:27:08;99991.63;;;17.53;100.00
40940;BME280;26666;50.156;7.700;2022-09-09T16:32:09;99975.44;;;17.10;100.00
40940;BME280;26666;50.156;7.700;2022-09-09T16:37:11;99976.63;;;17.37;100.00
40940;BME280;26666;50.156;7.700;2022-09-09T16:42:12;99964.84;;;17.31;100.00
40940;BME280;26666;50.156;7.700;2022-09-09T16:47:14;99982.16;;;17.06;100.00
40940;BME280;26666;50.156;7.700;2022-09-09T16:52:15;99975.53;;;17.46;100.00
40940;BME280;26666;50.156;7.700;2022-09-09T16:57:20;99986.78;;;17.42;100.00
40940;BME280;26666;50.156;7.700;2022-09-09T17:02:22;99989.38;;;17.20;100.00
40940;BME280;26666;50.156;7.700;2022-09-09T17:07:24;99981.50;;;17.33;100.00
40940;BME280;26666;50.156;7.700;2022-09-09T17:12:25;99992.84;;;17.21;100.00
40940;BME280;26666;50.156;7.700;2022-09-09T17:17:27;100004.25;;;17.29;100.00
40940;BME280;26666;50.156;7.700;2022-09-09T17:22:32;100015.09;;;16.98;100.00
40940;BME280;26666;50.156;7.700;2022-09-09T17:27:33;99999.25;;;16.82;100.00
40940;BME280;26666;50.156;7.700;2022-09-09T17:32:35;99998.44;;;16.96;100.00
40940;BME280;26666;50.156;7.700;2022-09-09T17:37:36;100000.75;;;17.14;100.00
40940;BME280;26666;50.156;7.700;2022-09-09T17:42:38;99992.31;;;17.10;100.00
40940;BME280;26666;50.156;7.700;2022-09-09T17:47:40;99992.94;;;17.12;100.00
40940;BME280;26666;50.156;7.700;2022-09-09T17:52:41;99989.34;;;17.05;100.00
40940;BME280;26666;50.156;7.700;2022-09-09T17:57:43;99994.22;;;16.64;100.00
40940;BME280;26666;50.156;7.700;2022-09-09T18:02:44;100005.91;;;16.78;100.00
40940;BME280;26666;50.156;7.700;2022-09-09T18:07:46;100010.97;;;16.72;100.00
40940;BME280;26666;50.156;7.700;2022-09-09T18:12:47;100004.06;;;16.78;100.00
40940;BME280;26666;50.156;7.700;2022-09-09T18:17:49;100020.81;;;16.72;100.00
40940;BME280;26666;50.156;7.700;2022-09-09T18:22:50;100023.34;;;16.65;100.00
40940;BME280;26666;50.156;7.700;2022-09-09T18:27:52;100035.13;;;16.48;100.00
40940;BME280;26666;50.156;7.700;2022-09-09T18:32:53;100041.66;;;16.45;100.00
40940;BME280;26666;50.156;7.700;2022-09-09T18:37:55;100045.34;;;16.44;100.00
40940;BME280;26666;50.156;7.700;2022-09-09T18:42:57;100047.59;;;16.55;100.00
40940;BME280;26666;50.156;7.700;2022-09-09T18:47:58;100061.63;;;16.72;100.00
40940;BME280;26666;50.156;7.700;2022-09-09T18:53:00;100057.19;;;16.65;100.00
40940;BME280;26666;50.156;7.700;2022-09-09T18:58:01;100062.13;;;16.76;100.00
40940;BME280;26666;50.156;7.700;2022-09-09T19:03:03;100059.78;;;16.50;100.00
40940;BME280;26666;50.156;7.700;2022-09-09T19:08:04;100063.16;;;16.44;100.00
40940;BME280;26666;50.156;7.700;2022-09-09T19:13:06;100065.13;;;16.27;100.00
40940;BME280;26666;50.156;7.700;2022-09-09T19:18:07;100058.84;;;16.43;100.00
40940;BME280;26666;50.156;7.700;2022-09-09T19:23:09;100057.34;;;16.40;100.00
40940;BME280;26666;50.156;7.700;2022-09-09T19:28:10;100065.50;;;16.47;100.00
40940;BME280;26666;50.156;7.700;2022-09-09T19:33:12;100068.94;;;16.24;100.00
40940;BME280;26666;50.156;7.700;2022-09-09T19:38:13;100073.63;;;16.22;100.00
40940;BME280;26666;50.156;7.700;2022-09-09T19:43:15;100077.75;;;16.02;100.00
40940;BME280;26666;50.156;7.700;2022-09-09T19:48:16;100084.69;;;16.11;100.00
40940;BME280;26666;50.156;7.700;2022-09-09T19:53:18;100086.38;;;16.04;100.00
40940;BME280;26666;50.156;7.700;2022-09-09T19:58:19;100082.25;;;15.93;100.00
40940;BME280;26666;50.156;7.700;2022-09-09T20:03:21;100086.72;;;16.01;100.00
40940;BME280;26666;50.156;7.700;2022-09-09T20:08:22;100089.09;;;15.95;100.00
40940;BME280;26666;50.156;7.700;2022-09-09T20:13:24;100089.09;;;15.87;100.00
40940;BME280;26666;50.156;7.700;2022-09-09T20:18:29;100093.81;;;15.77;100.00
40940;BME280;26666;50.156;7.700;2022-09-09T20:23:32;100094.50;;;15.54;100.00
40940;BME280;26666;50.156;7.700;2022-09-09T20:28:35;100102.47;;;15.54;100.00
40940;BME280;26666;50.156;7.700;2022-09-09T20:33:37;100109.31;;;15.57;100.00
40940;BME280;26666;50.156;7.700;2022-09-09T20:38:50;100107.84;;;15.38;100.00
40940;BME280;26666;50.156;7.700;2022-09-09T20:43:54;100104.19;;;15.23;100.00
40940;BME280;26666;50.156;7.700;2022-09-09T20:48:56;100108.53;;;15.15;100.00
40940;BME280;26666;50.156;7.700;2022-09-09T20:54:19;100104.38;;;15.29;100.00
40940;BME280;26666;50.156;7.700;2022-09-09T20:59:27;100113.03;;;15.31;100.00
40940;BME280;26666;50.156;7.700;2022-09-09T21:04:29;100113.69;;;15.09;100.00
40940;BME280;26666;50.156;7.700;2022-09-09T21:09:31;100104.03;;;15.32;100.00
40940;BME280;26666;50.156;7.700;2022-09-09T21:14:32;100104.22;;;15.14;100.00
40940;BME280;26666;50.156;7.700;2022-09-09T21:19:34;100098.34;;;15.27;100.00
40940;BME280;26666;50.156;7.700;2022-09-09T21:24:35;100103.03;;;15.42;100.00
40940;BME280;26666;50.156;7.700;2022-09-09T21:29:37;100106.06;;;15.14;100.00
40940;BME280;26666;50.156;7.700;2022-09-09T21:34:38;100104.38;;;15.13;100.00
40940;BME280;26666;50.156;7.700;2022-09-09T21:39:40;100094.38;;;15.15;100.00
40940;BME280;26666;50.156;7.700;2022-09-09T21:44:41;100104.53;;;15.36;100.00
40940;BME280;26666;50.156;7.700;2022-09-09T21:49:43;100102.88;;;15.27;100.00
40940;BME280;26666;50.156;7.700;2022-09-09T21:54:44;100113.34;;;15.36;100.00
40940;BME280;26666;50.156;7.700;2022-09-09T21:59:46;100104.34;;;15.21;100.00
40940;BME280;26666;50.156;7.700;2022-09-09T22:04:47;100097.19;;;15.46;100.00
40940;BME280;26666;50.156;7.700;2022-09-09T22:09:48;100104.66;;;15.59;100.00
40940;BME280;26666;50.156;7.700;2022-09-09T22:14:50;100089.81;;;15.56;100.00
40940;BME280;26666;50.156;7.700;2022-09-09T22:19:51;100080.34;;;15.54;100.00
40940;BME280;26666;50.156;7.700;2022-09-09T22:24:53;100089.50;;;15.60;100.00
40940;BME280;26666;50.156;7.700;2022-09-09T22:29:54;100095.34;;;15.38;100.00
40940;BME280;26666;50.156;7.700;2022-09-09T22:34:56;100092.06;;;15.20;100.00
40940;BME280;26666;50.156;7.700;2022-09-09T22:39:57;100103.72;;;15.11;100.00
40940;BME280;26666;50.156;7.700;2022-09-09T22:44:59;100106.88;;;15.06;100.00
40940;BME280;26666;50.156;7.700;2022-09-09T22:50:00;100104.84;;;15.00;100.00
40940;BME280;26666;50.156;7.700;2022-09-09T22:55:02;100120.50;;;14.87;100.00
40940;BME280;26666;50.156;7.700;2022-09-09T23:00:04;100114.16;;;14.71;100.00
40940;BME280;26666;50.156;7.700;2022-09-09T23:05:06;100122.81;;;14.82;100.00
40940;BME280;26666;50.156;7.700;2022-09-09T23:10:08;100121.78;;;14.66;100.00
40940;BME280;26666;50.156;7.700;2022-09-09T23:15:10;100123.13;;;14.62;100.00
40940;BME280;26666;50.156;7.700;2022-09-09T23:20:11;100114.13;;;14.63;100.00
40940;BME280;26666;50.156;7.700;2022-09-09T23:25:13;100102.25;;;14.41;100.00
40940;BME280;26666;50.156;7.700;2022-09-09T23:30:14;100106.00;;;14.56;100.00
40940;BME280;26666;50.156;7.700;2022-09-09T23:35:16;100110.75;;;14.45;100.00
40940;BME280;26666;50.156;7.700;2022-09-09T23:40:17;100111.72;;;14.35;100.00
40940;BME280;26666;50.156;7.700;2022-09-09T23:45:19;100114.38;;;14.35;100.00
40940;BME280;26666;50.156;7.700;2022-09-09T23:50:20;100102.41;;;14.39;100.00
40940;BME280;26666;50.156;7.700;2022-09-09T23:55:21;100108.75;;;14.38;100.00
